createdAt,value
2018-06-05T00:01:07.454Z,97794.00
2018-06-05T00:03:37.645Z,97795.00
2018-06-05T00:06:07.867Z,97798.00
2018-06-05T00:08:39.325Z,97795.00
2018-06-05T00:11:09.403Z,97799.00
2018-06-05T00:13:38.936Z,97798.00
2018-06-05T00:16:08.984Z,97801.00
2018-06-05T00:18:40.214Z,97800.00
2018-06-05T00:21:10.537Z,97807.00
2018-06-05T00:23:40.766Z,97803.00
2018-06-05T00:26:11.115Z,97807.00
2018-06-05T00:28:41.323Z,97808.00
2018-06-05T00:31:11.534Z,97811.00
2018-06-05T00:33:42.723Z,97807.00
2018-06-05T00:36:12.656Z,97814.00
2018-06-05T00:38:42.803Z,97810.00
2018-06-05T00:41:13.023Z,97818.00
2018-06-05T00:43:42.965Z,97816.00
2018-06-05T00:46:12.533Z,97825.00
2018-06-05T00:48:43.095Z,97825.00
2018-06-05T00:51:29.583Z,97829.00
2018-06-05T00:53:59.656Z,97827.00
2018-06-05T00:56:29.673Z,97819.00
2018-06-05T00:59:00.084Z,97828.00
2018-06-05T01:01:30.127Z,97820.00
2018-06-05T01:03:59.904Z,97817.00
2018-06-05T01:06:29.923Z,97825.00
2018-06-05T01:08:59.412Z,97822.00
2018-06-05T01:11:29.222Z,97813.00
2018-06-05T01:13:59.852Z,97815.00
2018-06-05T01:16:29.693Z,97809.00
2018-06-05T01:18:59.614Z,97810.00
2018-06-05T01:21:29.664Z,97807.00
2018-06-05T01:23:59.623Z,97803.00
2018-06-05T01:26:29.827Z,97805.00
2018-06-05T01:29:00.054Z,97808.00
2018-06-05T01:31:29.876Z,97807.00
2018-06-05T01:33:59.953Z,97793.00
2018-06-05T01:36:29.813Z,97808.00
2018-06-05T01:39:00.303Z,97805.00
2018-06-05T01:41:30.975Z,97801.00
2018-06-05T01:44:01.163Z,97798.00
2018-06-05T01:46:31.575Z,97795.00
2018-06-05T01:49:02.063Z,97800.00
2018-06-05T01:51:32.178Z,97797.00
2018-06-05T01:54:02.735Z,97801.00
2018-06-05T01:56:33.127Z,97809.00
2018-06-05T01:59:03.555Z,97809.00
2018-06-05T02:01:34.472Z,97807.00
2018-06-05T02:04:05.122Z,97810.00
2018-06-05T02:06:35.146Z,97807.00
2018-06-05T02:09:07.063Z,97804.00
2018-06-05T02:11:37.375Z,97815.00
2018-06-05T02:14:08.400Z,97815.00
2018-06-05T02:16:38.606Z,97813.00
2018-06-05T02:19:09.088Z,97818.00
2018-06-05T02:21:39.248Z,97820.00
2018-06-05T02:24:09.416Z,97814.00
2018-06-05T02:26:39.596Z,97820.00
2018-06-05T02:29:09.747Z,97824.00
2018-06-05T02:31:39.946Z,97828.00
2018-06-05T02:34:10.243Z,97819.00
2018-06-05T02:36:40.326Z,97818.00
2018-06-05T02:39:10.596Z,97826.00
2018-06-05T02:41:40.606Z,97822.00
2018-06-05T02:44:10.776Z,97825.00
2018-06-05T02:46:41.026Z,97831.00
2018-06-05T02:49:11.745Z,97824.00
2018-06-05T02:51:42.026Z,97821.00
2018-06-05T02:54:12.487Z,97826.00
2018-06-05T02:56:42.494Z,97833.00
2018-06-05T02:59:12.621Z,97829.00
2018-06-05T03:01:42.635Z,97828.00
2018-06-05T03:04:13.704Z,97834.00
2018-06-05T03:06:44.389Z,97834.00
2018-06-05T03:09:14.357Z,97836.00
2018-06-05T03:11:44.615Z,97836.00
2018-06-05T03:14:14.925Z,97837.00
2018-06-05T03:16:45.145Z,97842.00
2018-06-05T03:19:15.546Z,97839.00
2018-06-05T03:21:45.506Z,97852.00
2018-06-05T03:24:15.435Z,97847.00
2018-06-05T03:26:47.065Z,97851.00
2018-06-05T03:29:17.735Z,97845.00
2018-06-05T03:31:47.555Z,97850.00
2018-06-05T03:34:17.876Z,97849.00
2018-06-05T03:36:47.965Z,97853.00
2018-06-05T03:39:18.035Z,97852.00
2018-06-05T03:41:48.946Z,97852.00
2018-06-05T03:44:18.905Z,97853.00
2018-06-05T03:46:48.866Z,97857.00
2018-06-05T03:49:19.075Z,97859.00
2018-06-05T03:51:50.295Z,97860.00
2018-06-05T03:54:21.255Z,97855.00
2018-06-05T03:56:51.985Z,97851.00
2018-06-05T03:59:21.845Z,97855.00
2018-06-05T04:01:51.405Z,97862.00
2018-06-05T04:04:21.603Z,97862.00
2018-06-05T04:06:51.817Z,97864.00
2018-06-05T04:09:21.666Z,97868.00
2018-06-05T04:11:51.957Z,97868.00
2018-06-05T04:14:22.385Z,97875.00
2018-06-05T04:16:52.526Z,97871.00
2018-06-05T04:19:22.805Z,97867.00
2018-06-05T04:21:52.965Z,97872.00
2018-06-05T04:24:23.855Z,97866.00
2018-06-05T04:26:55.006Z,97874.00
2018-06-05T04:29:25.224Z,97884.00
2018-06-05T04:31:55.518Z,97894.00
2018-06-05T04:34:25.595Z,97890.00
2018-06-05T04:36:55.877Z,97897.00
2018-06-05T04:39:25.475Z,97891.00
2018-06-05T04:41:55.576Z,97890.00
2018-06-05T04:44:25.786Z,97892.00
2018-06-05T04:46:56.026Z,97895.00
2018-06-05T04:49:27.195Z,97907.00
2018-06-05T04:51:57.287Z,97903.00
2018-06-05T04:54:27.495Z,97909.00
2018-06-05T04:56:58.276Z,97913.00
2018-06-05T04:59:27.985Z,97919.00
2018-06-05T05:01:57.959Z,97920.00
2018-06-05T05:04:29.457Z,97915.00
2018-06-05T05:07:00.216Z,97919.00
2018-06-05T05:09:30.366Z,97918.00
2018-06-05T05:12:00.516Z,97921.00
2018-06-05T05:14:32.016Z,97915.00
2018-06-05T05:17:05.447Z,97920.00
2018-06-05T05:19:35.435Z,97923.00
2018-06-05T05:22:05.426Z,97925.00
2018-06-05T05:24:35.625Z,97932.00
2018-06-05T05:27:07.235Z,97931.00
2018-06-05T05:29:37.525Z,97932.00
2018-06-05T05:32:08.896Z,97937.00
2018-06-05T05:34:39.446Z,97935.00
2018-06-05T05:37:10.735Z,97942.00
2018-06-05T05:39:40.646Z,97944.00
2018-06-05T05:42:10.545Z,97940.00
2018-06-05T05:44:40.646Z,97944.00
2018-06-05T05:47:10.468Z,97937.00
2018-06-05T05:49:41.016Z,97943.00
2018-06-05T05:52:11.196Z,97947.00
2018-06-05T05:54:42.417Z,97960.00
2018-06-05T05:57:12.460Z,97961.00
2018-06-05T05:59:42.356Z,97958.00
2018-06-05T06:02:13.492Z,97952.00
2018-06-05T06:04:43.656Z,97946.00
2018-06-05T06:07:13.879Z,97953.00
2018-06-05T06:09:44.475Z,97951.00
2018-06-05T06:12:15.627Z,97959.00
2018-06-05T06:14:46.168Z,97952.00
2018-06-05T06:17:15.957Z,97961.00
2018-06-05T06:19:47.446Z,97954.00
2018-06-05T06:22:18.118Z,97957.00
2018-06-05T06:24:48.049Z,97961.00
2018-06-05T06:27:18.090Z,97957.00
2018-06-05T06:29:48.249Z,97959.00
2018-06-05T06:32:19.315Z,97953.00
2018-06-05T06:34:49.997Z,97964.00
2018-06-05T06:37:21.025Z,97958.00
2018-06-05T06:39:51.399Z,97954.00
2018-06-05T06:42:22.156Z,97958.00
2018-06-05T06:44:52.478Z,97954.00
2018-06-05T06:47:22.997Z,97958.00
2018-06-05T06:49:52.947Z,97954.00
2018-06-05T06:52:23.116Z,97958.00
2018-06-05T06:54:53.526Z,97960.00
2018-06-05T06:57:23.203Z,97961.00
2018-06-05T06:59:53.316Z,97956.00
2018-06-05T07:02:23.779Z,97956.00
2018-06-05T07:04:54.475Z,97963.00
2018-06-05T07:07:24.335Z,97954.00
2018-06-05T07:09:54.447Z,97957.00
2018-06-05T07:12:30.716Z,97952.00
2018-06-05T07:15:01.136Z,97956.00
2018-06-05T07:17:30.966Z,97952.00
2018-06-05T07:20:01.336Z,97949.00
2018-06-05T07:22:31.297Z,97954.00
2018-06-05T07:25:03.557Z,97953.00
2018-06-05T07:27:34.175Z,97954.00
2018-06-05T07:30:05.170Z,97950.00
2018-06-05T07:32:35.845Z,97956.00
2018-06-05T07:35:07.187Z,97955.00
2018-06-05T07:37:37.664Z,97948.00
2018-06-05T07:40:08.485Z,97951.00
2018-06-05T07:42:38.707Z,97944.00
2018-06-05T07:45:12.126Z,97949.00
2018-06-05T07:47:43.516Z,97952.00
2018-06-05T07:50:13.914Z,97946.00
2018-06-05T07:52:44.006Z,97939.00
2018-06-05T07:55:15.074Z,97939.00
2018-06-05T07:57:45.827Z,97935.00
2018-06-05T08:00:15.885Z,97946.00
2018-06-05T08:02:46.534Z,97938.00
2018-06-05T08:05:17.446Z,97940.00
2018-06-05T08:07:47.624Z,97943.00
2018-06-05T08:10:18.548Z,97938.00
2018-06-05T08:12:48.704Z,97935.00
2018-06-05T08:15:19.035Z,97938.00
2018-06-05T08:17:49.356Z,97942.00
2018-06-05T08:20:19.467Z,97943.00
2018-06-05T08:22:58.476Z,97932.00
2018-06-05T08:25:28.754Z,97934.00
2018-06-05T08:27:59.076Z,97937.00
2018-06-05T08:30:29.556Z,97940.00
2018-06-05T08:32:58.907Z,97947.00
2018-06-05T08:35:29.395Z,97940.00
2018-06-05T08:37:58.872Z,97937.00
2018-06-05T08:40:28.517Z,97936.00
2018-06-05T08:42:58.684Z,97927.00
2018-06-05T08:45:30.226Z,97937.00
2018-06-05T08:48:00.484Z,97935.00
2018-06-05T08:50:30.311Z,97928.00
2018-06-05T08:53:00.347Z,97929.00
2018-06-05T08:55:31.884Z,97927.00
2018-06-05T08:58:02.175Z,97927.00
2018-06-05T09:00:32.584Z,97922.00
2018-06-05T09:03:02.744Z,97923.00
2018-06-05T09:05:33.266Z,97921.00
2018-06-05T09:08:03.204Z,97910.00
2018-06-05T09:10:33.476Z,97914.00
2018-06-05T09:13:03.705Z,97910.00
2018-06-05T09:15:34.484Z,97904.00
2018-06-05T09:18:04.785Z,97914.00
2018-06-05T09:20:34.919Z,97905.00
2018-06-05T09:23:05.494Z,97921.00
2018-06-05T09:25:35.156Z,97919.00
2018-06-05T09:28:05.485Z,97914.00
2018-06-05T09:30:36.086Z,97911.00
2018-06-05T09:33:06.383Z,97913.00
2018-06-05T09:35:37.404Z,97917.00
2018-06-05T09:38:07.784Z,97912.00
2018-06-05T09:40:37.036Z,97908.00
2018-06-05T09:43:06.704Z,97912.00
2018-06-05T09:45:37.016Z,97907.00
2018-06-05T09:48:10.953Z,97900.00
2018-06-05T09:50:45.694Z,97899.00
2018-06-05T09:53:16.325Z,97898.00
2018-06-05T09:55:47.027Z,97896.00
2018-06-05T09:58:17.880Z,97890.00
2018-06-05T10:00:52.324Z,97891.00
2018-06-05T10:03:25.105Z,97885.00
2018-06-05T10:05:55.657Z,97887.00
2018-06-05T10:08:25.957Z,97896.00
2018-06-05T10:10:56.220Z,97891.00
2018-06-05T10:13:26.236Z,97887.00
2018-06-05T10:15:56.445Z,97885.00
2018-06-05T10:18:26.816Z,97882.00
2018-06-05T10:20:57.095Z,97876.00
2018-06-05T10:23:27.526Z,97875.00
2018-06-05T10:25:57.860Z,97875.00
2018-06-05T10:28:28.387Z,97877.00
2018-06-05T10:30:59.197Z,97862.00
2018-06-05T10:33:29.293Z,97861.00
2018-06-05T10:35:59.396Z,97862.00
2018-06-05T10:38:30.263Z,97860.00
2018-06-05T10:41:00.496Z,97862.00
2018-06-05T10:43:30.955Z,97867.00
2018-06-05T10:46:01.175Z,97866.00
2018-06-05T10:48:31.516Z,97871.00
2018-06-05T10:51:02.206Z,97867.00
2018-06-05T10:53:32.496Z,97877.00
2018-06-05T10:56:02.831Z,97869.00
2018-06-05T10:58:33.565Z,97870.00
2018-06-05T11:01:04.476Z,97853.00
2018-06-05T11:03:35.395Z,97866.00
2018-06-05T11:06:05.855Z,97876.00
2018-06-05T11:08:36.405Z,97880.00
2018-06-05T11:11:06.706Z,97876.00
2018-06-05T11:13:37.064Z,97880.00
2018-06-05T11:16:10.238Z,97873.00
2018-06-05T11:18:40.765Z,97871.00
2018-06-05T11:21:11.405Z,97870.00
2018-06-05T11:23:42.346Z,97877.00
2018-06-05T11:26:12.884Z,97886.00
2018-06-05T11:28:43.355Z,97909.00
2018-06-05T11:31:13.985Z,97912.00
2018-06-05T11:33:44.935Z,97890.00
2018-06-05T11:36:16.056Z,97897.00
2018-06-05T11:38:47.335Z,97896.00
2018-06-05T11:41:19.164Z,97894.00
2018-06-05T11:43:50.194Z,97893.00
2018-06-05T11:46:20.905Z,97895.00
2018-06-05T11:48:51.405Z,97891.00
2018-06-05T11:51:21.915Z,97889.00
2018-06-05T11:53:52.196Z,97889.00
2018-06-05T11:56:22.405Z,97893.00
2018-06-05T11:58:52.716Z,97885.00
2018-06-05T12:01:23.876Z,97893.00
2018-06-05T12:03:54.325Z,97885.00
2018-06-05T12:06:25.068Z,97883.00
2018-06-05T12:08:55.425Z,97876.00
2018-06-05T12:11:25.984Z,97876.00
2018-06-05T12:13:56.295Z,97872.00
2018-06-05T12:16:27.065Z,97864.00
2018-06-05T12:18:58.265Z,97860.00
2018-06-05T12:21:28.895Z,97863.00
2018-06-05T12:23:59.845Z,97857.00
2018-06-05T12:26:30.738Z,97861.00
2018-06-05T12:29:00.804Z,97855.00
2018-06-05T12:31:31.114Z,97851.00
2018-06-05T12:34:01.375Z,97844.00
2018-06-05T12:36:32.225Z,97840.00
2018-06-05T12:39:02.875Z,97844.00
2018-06-05T12:41:33.624Z,97834.00
2018-06-05T12:44:05.024Z,97837.00
2018-06-05T12:46:35.474Z,97835.00
2018-06-05T12:49:06.445Z,97828.00
2018-06-05T12:51:36.928Z,97819.00
2018-06-05T12:54:09.105Z,97827.00
2018-06-05T12:56:39.615Z,97828.00
2018-06-05T12:59:09.795Z,97820.00
2018-06-05T13:01:41.124Z,97818.00
2018-06-05T13:04:12.495Z,97816.00
2018-06-05T13:06:43.464Z,97817.00
2018-06-05T13:09:14.392Z,97810.00
2018-06-05T13:11:45.048Z,97809.00
2018-06-05T13:14:16.489Z,97811.00
2018-06-05T13:16:46.517Z,97808.00
2018-06-05T13:19:17.763Z,97798.00
2018-06-05T13:21:47.566Z,97801.00
2018-06-05T13:24:18.155Z,97800.00
2018-06-05T13:26:48.385Z,97798.00
2018-06-05T13:29:20.075Z,97796.00
2018-06-05T13:31:50.387Z,97800.00
2018-06-05T13:34:22.274Z,97797.00
2018-06-05T13:36:53.018Z,97798.00
2018-06-05T13:39:24.085Z,97791.00
2018-06-05T13:41:54.744Z,97783.00
2018-06-05T13:44:25.675Z,97778.00
2018-06-05T13:46:55.847Z,97780.00
2018-06-05T13:49:26.786Z,97781.00
2018-06-05T13:51:57.217Z,97773.00
2018-06-05T13:54:27.737Z,97782.00
2018-06-05T13:56:59.987Z,97780.00
2018-06-05T13:59:29.908Z,97785.00
2018-06-05T14:02:00.155Z,97782.00
2018-06-05T14:04:30.274Z,97777.00
2018-06-05T14:07:00.434Z,97779.00
2018-06-05T14:09:30.935Z,97785.00
2018-06-05T14:12:01.305Z,97781.00
2018-06-05T14:14:31.795Z,97778.00
2018-06-05T14:17:02.255Z,97776.00
2018-06-05T14:19:32.377Z,97783.00
2018-06-05T14:24:44.517Z,97785.00
2018-06-05T14:27:15.058Z,97781.00
2018-06-05T14:29:45.616Z,97780.00
2018-06-05T14:32:16.272Z,97779.00
2018-06-05T14:34:47.129Z,97776.00
2018-06-05T14:37:18.847Z,97774.00
2018-06-05T14:39:51.277Z,97770.00
2018-06-05T14:42:22.057Z,97760.00
2018-06-05T14:44:56.628Z,97766.00
2018-06-05T14:47:31.701Z,97765.00
2018-06-05T14:50:05.265Z,97761.00
2018-06-05T14:52:37.026Z,97762.00
2018-06-05T14:55:07.375Z,97760.00
2018-06-05T14:57:38.056Z,97759.00
2018-06-05T15:00:08.254Z,97755.00
2018-06-05T15:02:38.866Z,97754.00
2018-06-05T15:05:12.916Z,97759.00
2018-06-05T15:07:43.774Z,97754.00
2018-06-05T15:10:14.958Z,97760.00
2018-06-05T15:12:45.546Z,97771.00
2018-06-05T15:15:16.775Z,97772.00
2018-06-05T15:17:47.654Z,97769.00
2018-06-05T15:20:18.157Z,97768.00
2018-06-05T15:22:49.591Z,97780.00
2018-06-05T15:25:20.159Z,97782.00
2018-06-05T15:27:54.188Z,97785.00
2018-06-05T15:30:27.567Z,97784.00
2018-06-05T15:33:00.669Z,97789.00
2018-06-05T15:35:31.339Z,97784.00
2018-06-05T15:38:09.448Z,97784.00
2018-06-05T15:40:39.907Z,97787.00
2018-06-05T15:43:13.579Z,97780.00
2018-06-05T15:45:46.196Z,97788.00
2018-06-05T15:48:16.336Z,97789.00
2018-06-05T15:50:46.926Z,97786.00
2018-06-05T15:53:17.874Z,97788.00
2018-06-05T15:55:51.591Z,97790.00
2018-06-05T15:58:26.797Z,97785.00
2018-06-05T16:00:59.017Z,97785.00
2018-06-05T16:03:30.688Z,97778.00
2018-06-05T16:06:00.700Z,97780.00
2018-06-05T16:08:31.328Z,97778.00
2018-06-05T16:11:01.738Z,97777.00
2018-06-05T16:13:32.928Z,97780.00
2018-06-05T16:16:04.080Z,97772.00
2018-06-05T16:18:34.578Z,97779.00
2018-06-05T16:21:04.988Z,97768.00
2018-06-05T16:23:35.515Z,97774.00
2018-06-05T16:26:11.018Z,97769.00
2018-06-05T16:28:42.516Z,97771.00
2018-06-05T16:31:13.470Z,97777.00
2018-06-05T16:33:44.226Z,97766.00
2018-06-05T16:36:14.927Z,97775.00
2018-06-05T16:38:45.746Z,97777.00
2018-06-05T16:41:31.117Z,97774.00
2018-06-05T16:44:01.896Z,97776.00
2018-06-05T16:46:32.687Z,97773.00
2018-06-05T16:49:04.427Z,97774.00
2018-06-05T16:51:35.170Z,97773.00
2018-06-05T16:54:06.258Z,97766.00
2018-06-05T16:56:37.468Z,97778.00
2018-06-05T16:59:08.477Z,97770.00
2018-06-05T17:01:38.758Z,97779.00
2018-06-05T17:04:09.527Z,97773.00
2018-06-05T17:06:39.508Z,97774.00
2018-06-05T17:09:10.127Z,97784.00
2018-06-05T17:11:40.822Z,97781.00
2018-06-05T17:14:11.827Z,97790.00
2018-06-05T17:16:44.478Z,97796.00
2018-06-05T17:19:16.008Z,97790.00
2018-06-05T17:21:46.136Z,97795.00
2018-06-05T17:24:18.886Z,97800.00
2018-06-05T17:26:49.507Z,97802.00
2018-06-05T17:29:20.529Z,97805.00
2018-06-05T17:31:50.786Z,97797.00
2018-06-05T17:34:21.376Z,97806.00
2018-06-05T17:36:52.236Z,97812.00
2018-06-05T17:39:22.686Z,97809.00
2018-06-05T17:41:53.167Z,97818.00
2018-06-05T17:44:23.697Z,97815.00
2018-06-05T17:46:58.466Z,97823.00
2018-06-05T17:49:29.286Z,97817.00
2018-06-05T17:52:00.427Z,97822.00
2018-06-05T17:54:31.377Z,97828.00
2018-06-05T17:57:07.763Z,97825.00
2018-06-05T17:59:38.637Z,97822.00
2018-06-05T18:02:16.517Z,97826.00
2018-06-05T18:04:46.836Z,97840.00
2018-06-05T18:07:17.280Z,97840.00
2018-06-05T18:09:49.028Z,97839.00
2018-06-05T18:12:19.908Z,97838.00
2018-06-05T18:14:50.697Z,97842.00
2018-06-05T18:17:21.886Z,97853.00
2018-06-05T18:19:52.637Z,97848.00
2018-06-05T18:22:22.997Z,97854.00
2018-06-05T18:24:53.866Z,97854.00
2018-06-05T18:27:24.517Z,97866.00
2018-06-05T18:29:55.049Z,97863.00
2018-06-05T18:32:26.807Z,97867.00
2018-06-05T18:34:57.137Z,97861.00
2018-06-05T18:37:28.347Z,97872.00
2018-06-05T18:39:59.646Z,97871.00
2018-06-05T18:42:30.077Z,97864.00
2018-06-05T18:45:04.436Z,97871.00
2018-06-05T18:47:35.627Z,97866.00
2018-06-05T18:50:06.777Z,97873.00
2018-06-05T18:52:38.677Z,97871.00
2018-06-05T18:55:09.506Z,97878.00
2018-06-05T18:57:39.987Z,97879.00
2018-06-05T19:00:13.488Z,97884.00
2018-06-05T19:02:45.237Z,97878.00
2018-06-05T19:05:16.478Z,97891.00
2018-06-05T19:07:48.859Z,97892.00
2018-06-05T19:10:19.734Z,97897.00
2018-06-05T19:12:51.045Z,97899.00
2018-06-05T19:15:22.487Z,97908.00
2018-06-05T19:17:52.819Z,97906.00
2018-06-05T19:20:23.016Z,97914.00
2018-06-05T19:22:53.080Z,97919.00
2018-06-05T19:25:51.117Z,97922.00
2018-06-05T19:28:43.767Z,97926.00
2018-06-05T19:31:25.711Z,97927.00
2018-06-05T19:33:56.576Z,97933.00
2018-06-05T19:36:27.166Z,97936.00
2018-06-05T19:39:01.977Z,97939.00
2018-06-05T19:41:37.008Z,97945.00
2018-06-05T19:44:09.549Z,97948.00
2018-06-05T19:46:40.170Z,97956.00
2018-06-05T19:49:12.717Z,97960.00
2018-06-05T19:51:44.716Z,97965.00
2018-06-05T19:54:15.427Z,97974.00
2018-06-05T19:56:47.196Z,97981.00
2018-06-05T19:59:17.996Z,97973.00
2018-06-05T20:01:48.985Z,97978.00
2018-06-05T20:04:19.855Z,97976.00
2018-06-05T20:06:50.948Z,97982.00
2018-06-05T20:09:21.765Z,97979.00
2018-06-05T20:11:52.304Z,97981.00
2018-06-05T20:14:23.517Z,97986.00
2018-06-05T20:16:54.335Z,97996.00
2018-06-05T20:19:24.825Z,97993.00
2018-06-05T20:21:55.447Z,97985.00
2018-06-05T20:24:25.876Z,97989.00
2018-06-05T20:26:57.747Z,97986.00
2018-06-05T20:29:31.387Z,97993.00
2018-06-05T20:32:02.866Z,97993.00
2018-06-05T20:34:35.247Z,97991.00
2018-06-05T20:37:07.116Z,97990.00
2018-06-05T20:39:38.757Z,97993.00
2018-06-05T20:42:12.047Z,97996.00
2018-06-05T20:44:44.135Z,97990.00
2018-06-05T20:47:16.387Z,97990.00
2018-06-05T20:49:47.347Z,97987.00
2018-06-05T20:52:17.459Z,97992.00
2018-06-05T20:54:48.416Z,97990.00
2018-06-05T20:57:19.416Z,97993.00
2018-06-05T20:59:50.766Z,98001.00
2018-06-05T21:02:22.446Z,98008.00
2018-06-05T21:04:54.517Z,98010.00
2018-06-05T21:07:24.594Z,98016.00
2018-06-05T21:09:56.336Z,98018.00
2018-06-05T21:12:27.206Z,98030.00
2018-06-05T21:14:58.834Z,98026.00
2018-06-05T21:17:29.890Z,98028.00
2018-06-05T21:20:00.756Z,98033.00
2018-06-05T21:22:37.974Z,98041.00
2018-06-05T21:25:08.746Z,98032.00
2018-06-05T21:27:39.567Z,98040.00
2018-06-05T21:30:10.514Z,98042.00
2018-06-05T21:32:42.767Z,98042.00
2018-06-05T21:35:13.216Z,98040.00
2018-06-05T21:37:43.758Z,98042.00
2018-06-05T21:40:14.288Z,98044.00
2018-06-05T21:42:44.987Z,98036.00
2018-06-05T21:45:15.476Z,98038.00
2018-06-05T21:47:46.037Z,98033.00
2018-06-05T21:50:16.776Z,98037.00
2018-06-05T21:52:47.766Z,98036.00
2018-06-05T21:55:20.248Z,98040.00
2018-06-05T21:57:50.647Z,98036.00
2018-06-05T22:00:24.387Z,98035.00
2018-06-05T22:02:55.017Z,98037.00
2018-06-05T22:05:25.756Z,98036.00
2018-06-05T22:07:56.425Z,98043.00
2018-06-05T22:10:27.706Z,98039.00
2018-06-05T22:12:58.327Z,98032.00
2018-06-05T22:15:30.317Z,98025.00
2018-06-05T22:18:00.916Z,98026.00
2018-06-05T22:20:31.490Z,98021.00
2018-06-05T22:23:02.018Z,98016.00
2018-06-05T22:25:33.307Z,98022.00
2018-06-05T22:28:03.647Z,98016.00
2018-06-05T22:30:35.707Z,98014.00
2018-06-05T22:33:05.857Z,98013.00
2018-06-05T22:35:37.477Z,98018.00
2018-06-05T22:38:08.416Z,98023.00
2018-06-05T22:40:39.847Z,98015.00
2018-06-05T22:43:10.368Z,98014.00
2018-06-05T22:45:40.847Z,98024.00
2018-06-05T22:48:11.999Z,98028.00
2018-06-05T22:50:42.287Z,98027.00
2018-06-05T22:53:12.927Z,98033.00
2018-06-05T22:55:43.157Z,98026.00
2018-06-05T22:58:14.027Z,98031.00
2018-06-05T23:00:44.437Z,98036.00
2018-06-05T23:03:16.091Z,98042.00
2018-06-05T23:05:46.957Z,98043.00
2018-06-05T23:08:17.936Z,98042.00
2018-06-05T23:10:48.666Z,98042.00
2018-06-05T23:13:19.679Z,98046.00
2018-06-05T23:15:50.398Z,98045.00
2018-06-05T23:18:20.168Z,98043.00
2018-06-05T23:20:51.527Z,98043.00
2018-06-05T23:23:22.187Z,98053.00
2018-06-05T23:25:53.137Z,98045.00
2018-06-05T23:28:23.549Z,98052.00
2018-06-05T23:30:54.148Z,98052.00
2018-06-05T23:33:24.867Z,98050.00
2018-06-05T23:35:55.458Z,98052.00
2018-06-05T23:38:26.096Z,98053.00
2018-06-05T23:40:57.667Z,98055.00
2018-06-05T23:43:28.807Z,98051.00
2018-06-05T23:46:00.206Z,98058.00
2018-06-05T23:48:32.018Z,98058.00
2018-06-05T23:51:02.108Z,98062.00
2018-06-05T23:53:32.177Z,98063.00
2018-06-05T23:56:02.536Z,98062.00
2018-06-05T23:58:32.719Z,98064.00
